createdAt,value
2019-05-23T00:00:17.629Z,13.91
2019-05-23T00:01:17.662Z,13.90
2019-05-23T00:02:17.696Z,13.90
2019-05-23T00:03:17.727Z,13.94
2019-05-23T00:04:17.759Z,13.99
2019-05-23T00:05:17.797Z,14.02
2019-05-23T00:06:17.829Z,13.91
2019-05-23T00:07:17.857Z,13.91
2019-05-23T00:08:17.895Z,13.96
2019-05-23T00:09:17.915Z,14.02
2019-05-23T00:10:17.952Z,13.93
2019-05-23T00:11:17.981Z,13.99
2019-05-23T00:12:18.025Z,14.05
2019-05-23T00:13:18.068Z,13.99
2019-05-23T00:14:18.143Z,13.99
2019-05-23T00:15:18.123Z,13.99
2019-05-23T00:16:18.155Z,14.01
2019-05-23T00:17:18.190Z,14.08
2019-05-23T00:18:21.137Z,13.98
2019-05-23T00:19:18.283Z,14.02
2019-05-23T00:20:18.300Z,13.94
2019-05-23T00:21:18.316Z,13.94
2019-05-23T00:22:18.358Z,13.96
2019-05-23T00:23:18.381Z,13.96
2019-05-23T00:24:18.414Z,14.05
2019-05-23T00:25:18.448Z,13.88
2019-05-23T00:26:18.478Z,13.99
2019-05-23T00:27:18.569Z,14.02
2019-05-23T00:28:18.547Z,13.91
2019-05-23T00:29:18.583Z,13.88
2019-05-23T00:30:18.613Z,13.88
2019-05-23T00:31:18.631Z,13.94
2019-05-23T00:32:18.672Z,13.96
2019-05-23T00:33:18.704Z,13.96
2019-05-23T00:34:18.744Z,13.96
2019-05-23T00:35:18.782Z,13.98
2019-05-23T00:36:18.836Z,13.93
2019-05-23T00:37:18.842Z,13.98
2019-05-23T00:38:18.876Z,13.87
2019-05-23T00:39:18.913Z,13.91
2019-05-23T00:40:18.938Z,13.94
2019-05-23T00:41:18.971Z,13.91
2019-05-23T00:42:19.003Z,13.91
2019-05-23T00:43:19.036Z,13.94
2019-05-23T00:44:19.069Z,13.91
2019-05-23T00:45:19.100Z,13.79
2019-05-23T00:46:19.134Z,13.84
2019-05-23T00:47:19.165Z,13.80
2019-05-23T00:48:19.199Z,13.81
2019-05-23T00:49:19.238Z,13.84
2019-05-23T00:50:19.271Z,13.83
2019-05-23T00:51:19.286Z,13.83
2019-05-23T00:52:19.328Z,13.84
2019-05-23T00:53:19.358Z,13.81
2019-05-23T00:54:19.401Z,13.80
2019-05-23T00:55:19.434Z,13.83
2019-05-23T00:56:19.463Z,13.86
2019-05-23T00:57:19.500Z,13.83
2019-05-23T00:58:19.533Z,13.83
2019-05-23T00:59:27.122Z,13.80
2019-05-23T01:00:19.663Z,13.81
2019-05-23T01:01:19.625Z,13.90
2019-05-23T01:02:19.658Z,13.80
2019-05-23T01:03:19.690Z,13.79
2019-05-23T01:04:19.724Z,13.79
2019-05-23T01:05:19.755Z,13.84
2019-05-23T01:06:19.799Z,13.80
2019-05-23T01:07:19.821Z,13.83
2019-05-23T01:08:19.852Z,13.72
2019-05-23T01:09:19.957Z,13.81
2019-05-23T01:10:19.918Z,13.84
2019-05-23T01:11:19.944Z,13.83
2019-05-23T01:12:19.981Z,13.72
2019-05-23T01:13:20.019Z,13.75
2019-05-23T01:14:20.042Z,13.72
2019-05-23T01:15:20.086Z,13.69
2019-05-23T01:16:20.115Z,13.76
2019-05-23T01:17:20.148Z,13.81
2019-05-23T01:18:20.178Z,13.76
2019-05-23T01:19:20.211Z,13.81
2019-05-23T01:20:20.245Z,13.76
2019-05-23T01:21:20.276Z,13.80
2019-05-23T01:22:20.303Z,13.75
2019-05-23T01:23:20.341Z,13.71
2019-05-23T01:24:20.378Z,13.79
2019-05-23T01:25:20.405Z,13.72
2019-05-23T01:26:20.447Z,13.76
2019-05-23T01:27:20.476Z,13.79
2019-05-23T01:28:20.507Z,13.73
2019-05-23T01:29:20.539Z,13.75
2019-05-23T01:30:20.572Z,13.75
2019-05-23T01:31:20.859Z,13.72
2019-05-23T01:32:20.628Z,13.73
2019-05-23T01:33:20.665Z,13.72
2019-05-23T01:34:20.695Z,13.59
2019-05-23T01:35:20.743Z,13.65
2019-05-23T01:36:20.769Z,13.62
2019-05-23T01:37:20.801Z,13.62
2019-05-23T01:38:20.851Z,13.63
2019-05-23T01:39:20.858Z,13.62
2019-05-23T01:40:20.951Z,13.66
2019-05-23T01:41:20.931Z,13.63
2019-05-23T01:42:20.963Z,13.68
2019-05-23T01:43:20.995Z,13.66
2019-05-23T01:44:21.028Z,13.63
2019-05-23T01:45:21.119Z,13.66
2019-05-23T01:46:21.093Z,13.61
2019-05-23T01:47:21.128Z,13.54
2019-05-23T01:48:21.157Z,13.63
2019-05-23T01:49:21.199Z,13.57
2019-05-23T01:50:21.227Z,13.57
2019-05-23T01:51:21.255Z,13.55
2019-05-23T01:52:21.295Z,13.55
2019-05-23T01:53:21.324Z,13.54
2019-05-23T01:54:21.351Z,13.61
2019-05-23T01:55:21.388Z,13.53
2019-05-23T01:56:21.412Z,13.55
2019-05-23T01:57:21.452Z,13.55
2019-05-23T01:58:21.490Z,13.54
2019-05-23T01:59:21.518Z,13.57
2019-05-23T02:00:21.549Z,13.53
2019-05-23T02:01:21.577Z,13.53
2019-05-23T02:02:21.614Z,13.50
2019-05-23T02:03:21.650Z,13.51
2019-05-23T02:04:21.679Z,13.50
2019-05-23T02:05:21.709Z,13.46
2019-05-23T02:06:21.743Z,13.48
2019-05-23T02:07:21.775Z,13.55
2019-05-23T02:08:21.808Z,13.47
2019-05-23T02:09:21.844Z,13.50
2019-05-23T02:10:21.876Z,13.43
2019-05-23T02:11:21.905Z,13.50
2019-05-23T02:12:21.951Z,13.48
2019-05-23T02:13:21.960Z,13.47
2019-05-23T02:14:21.997Z,13.39
2019-05-23T02:15:22.030Z,13.43
2019-05-23T02:16:22.059Z,13.44
2019-05-23T02:17:22.098Z,13.39
2019-05-23T02:18:22.132Z,13.46
2019-05-23T02:19:22.162Z,13.38
2019-05-23T02:20:22.196Z,13.35
2019-05-23T02:21:22.224Z,13.25
2019-05-23T02:22:22.259Z,13.27
2019-05-23T02:23:22.292Z,13.27
2019-05-23T02:24:22.324Z,13.21
2019-05-23T02:25:22.356Z,13.16
2019-05-23T02:26:22.389Z,13.24
2019-05-23T02:27:22.421Z,13.22
2019-05-23T02:28:22.454Z,13.14
2019-05-23T02:29:22.491Z,13.17
2019-05-23T02:30:33.785Z,13.12
2019-05-23T02:31:22.558Z,13.13
2019-05-23T02:32:22.595Z,13.12
2019-05-23T02:33:22.614Z,13.01
2019-05-23T02:34:22.647Z,13.09
2019-05-23T02:35:22.731Z,13.09
2019-05-23T02:36:22.708Z,13.04
2019-05-23T02:37:22.753Z,13.06
2019-05-23T02:38:22.776Z,13.12
2019-05-23T02:39:22.813Z,12.98
2019-05-23T02:40:22.842Z,12.98
2019-05-23T02:41:22.875Z,12.96
2019-05-23T02:42:22.907Z,12.92
2019-05-23T02:43:22.948Z,12.92
2019-05-23T02:44:22.970Z,12.92
2019-05-23T02:45:23.006Z,12.92
2019-05-23T02:46:23.036Z,12.91
2019-05-23T02:47:23.067Z,12.95
2019-05-23T02:48:23.109Z,12.94
2019-05-23T02:49:23.134Z,12.92
2019-05-23T02:50:23.175Z,12.89
2019-05-23T02:51:23.198Z,12.95
2019-05-23T02:52:23.237Z,12.94
2019-05-23T02:53:23.261Z,12.91
2019-05-23T02:54:23.287Z,12.94
2019-05-23T02:55:23.345Z,12.95
2019-05-23T02:56:23.353Z,12.96
2019-05-23T02:57:23.390Z,12.91
2019-05-23T02:58:23.424Z,12.91
2019-05-23T02:59:23.462Z,12.94
2019-05-23T03:00:23.488Z,12.96
2019-05-23T03:01:23.524Z,12.92
2019-05-23T03:02:23.545Z,12.94
2019-05-23T03:03:23.585Z,12.87
2019-05-23T03:04:23.613Z,12.84
2019-05-23T03:05:23.645Z,12.88
2019-05-23T03:06:23.678Z,12.89
2019-05-23T03:07:23.713Z,12.91
2019-05-23T03:08:23.745Z,12.88
2019-05-23T03:09:23.779Z,12.89
2019-05-23T03:10:23.812Z,12.77
2019-05-23T03:11:23.841Z,12.84
2019-05-23T03:12:25.230Z,12.81
2019-05-23T03:13:23.906Z,12.85
2019-05-23T03:14:23.943Z,12.80
2019-05-23T03:15:23.960Z,12.85
2019-05-23T03:16:23.994Z,12.85
2019-05-23T03:17:24.019Z,12.77
2019-05-23T03:18:24.057Z,12.85
2019-05-23T03:19:24.105Z,12.80
2019-05-23T03:20:24.133Z,12.85
2019-05-23T03:21:24.158Z,12.84
2019-05-23T03:22:24.196Z,12.73
2019-05-23T03:23:24.240Z,12.79
2019-05-23T03:24:24.264Z,12.70
2019-05-23T03:25:24.296Z,12.85
2019-05-23T03:26:24.321Z,12.80
2019-05-23T03:27:24.355Z,12.84
2019-05-23T03:28:24.391Z,12.73
2019-05-23T03:29:24.421Z,12.74
2019-05-23T03:30:24.451Z,12.73
2019-05-23T03:31:30.962Z,12.71
2019-05-23T03:32:24.512Z,12.70
2019-05-23T03:33:24.549Z,12.73
2019-05-23T03:34:24.577Z,12.67
2019-05-23T03:35:24.610Z,12.63
2019-05-23T03:36:24.636Z,12.43
2019-05-23T03:37:24.668Z,12.43
2019-05-23T03:38:24.701Z,12.40
2019-05-23T03:39:24.745Z,12.52
2019-05-23T03:40:24.770Z,12.44
2019-05-23T03:41:24.806Z,12.41
2019-05-23T03:42:24.837Z,12.40
2019-05-23T03:43:24.872Z,12.41
2019-05-23T03:44:24.894Z,12.40
2019-05-23T03:45:24.928Z,12.25
2019-05-23T03:46:24.962Z,12.40
2019-05-23T03:47:24.993Z,12.33
2019-05-23T03:48:25.116Z,12.33
2019-05-23T03:49:25.060Z,12.33
2019-05-23T03:50:25.094Z,12.30
2019-05-23T03:51:25.129Z,12.41
2019-05-23T03:52:25.150Z,12.41
2019-05-23T03:53:25.183Z,12.34
2019-05-23T03:54:25.243Z,12.25
2019-05-23T03:55:25.251Z,12.26
2019-05-23T03:56:25.284Z,12.29
2019-05-23T03:57:26.075Z,12.31
2019-05-23T03:58:25.339Z,12.31
2019-05-23T03:59:25.368Z,12.46
2019-05-23T04:00:25.399Z,12.41
2019-05-23T04:01:43.980Z,12.34
2019-05-23T04:02:25.469Z,12.34
2019-05-23T04:03:25.502Z,12.37
2019-05-23T04:04:25.535Z,12.33
2019-05-23T04:05:25.567Z,12.41
2019-05-23T04:06:25.596Z,12.38
2019-05-23T04:07:25.630Z,12.22
2019-05-23T04:08:25.659Z,12.33
2019-05-23T04:09:25.704Z,12.26
2019-05-23T04:10:25.723Z,12.15
2019-05-23T04:11:25.755Z,12.23
2019-05-23T04:12:25.788Z,12.22
2019-05-23T04:13:25.816Z,12.26
2019-05-23T04:14:25.849Z,12.23
2019-05-23T04:15:25.882Z,12.25
2019-05-23T04:16:30.223Z,12.25
2019-05-23T04:17:25.947Z,12.29
2019-05-23T04:18:25.975Z,12.21
2019-05-23T04:19:26.015Z,12.21
2019-05-23T04:20:26.035Z,12.26
2019-05-23T04:21:26.098Z,12.19
2019-05-23T04:22:26.105Z,12.25
2019-05-23T04:23:26.137Z,12.26
2019-05-23T04:24:26.177Z,12.18
2019-05-23T04:25:26.203Z,12.23
2019-05-23T04:26:26.234Z,12.11
2019-05-23T04:27:26.266Z,12.19
2019-05-23T04:28:26.296Z,12.11
2019-05-23T04:29:26.325Z,12.12
2019-05-23T04:30:26.363Z,12.05
2019-05-23T04:31:26.391Z,12.05
2019-05-23T04:32:26.413Z,12.05
2019-05-23T04:33:26.450Z,12.03
2019-05-23T04:34:26.495Z,12.08
2019-05-23T04:35:26.511Z,12.07
2019-05-23T04:36:26.545Z,12.07
2019-05-23T04:37:26.577Z,12.05
2019-05-23T04:38:26.603Z,12.04
2019-05-23T04:39:26.710Z,12.04
2019-05-23T04:40:26.674Z,12.00
2019-05-23T04:41:26.698Z,12.07
2019-05-23T04:42:26.729Z,12.03
2019-05-23T04:43:26.762Z,12.03
2019-05-23T04:44:26.802Z,12.11
2019-05-23T04:45:26.832Z,12.03
2019-05-23T04:46:26.863Z,12.07
2019-05-23T04:47:26.903Z,12.04
2019-05-23T04:48:26.926Z,11.97
2019-05-23T04:49:26.962Z,12.08
2019-05-23T04:50:26.989Z,12.00
2019-05-23T04:51:27.022Z,12.04
2019-05-23T04:52:27.049Z,12.07
2019-05-23T04:53:27.081Z,12.08
2019-05-23T04:54:27.115Z,12.11
2019-05-23T04:55:27.154Z,12.11
2019-05-23T04:56:27.184Z,12.11
2019-05-23T04:57:27.207Z,12.15
2019-05-23T04:58:27.239Z,12.15
2019-05-23T04:59:27.270Z,12.11
2019-05-23T05:00:27.309Z,12.16
2019-05-23T05:01:27.326Z,12.21
2019-05-23T05:02:27.359Z,12.23
2019-05-23T05:03:27.405Z,12.22
2019-05-23T05:04:27.433Z,12.21
2019-05-23T05:05:27.454Z,12.22
2019-05-23T05:06:27.508Z,12.23
2019-05-23T05:07:27.529Z,12.21
2019-05-23T05:08:27.555Z,12.19
2019-05-23T05:09:27.585Z,12.21
2019-05-23T05:10:27.619Z,12.23
2019-05-23T05:11:30.446Z,12.34
2019-05-23T05:12:27.683Z,12.19
2019-05-23T05:13:27.713Z,12.36
2019-05-23T05:14:27.749Z,12.31
2019-05-23T05:15:27.778Z,12.37
2019-05-23T05:16:27.809Z,12.40
2019-05-23T05:17:27.846Z,12.37
2019-05-23T05:18:27.874Z,12.38
2019-05-23T05:19:27.902Z,12.40
2019-05-23T05:20:28.009Z,12.43
2019-05-23T05:21:28.017Z,12.40
2019-05-23T05:22:28.043Z,12.38
2019-05-23T05:23:28.089Z,12.46
2019-05-23T05:24:28.059Z,12.44
2019-05-23T05:25:28.095Z,12.51
2019-05-23T05:26:28.135Z,12.52
2019-05-23T05:27:28.160Z,12.49
2019-05-23T05:28:28.194Z,12.58
2019-05-23T05:29:28.221Z,12.48
2019-05-23T05:30:28.268Z,12.54
2019-05-23T05:31:28.288Z,12.58
2019-05-23T05:32:43.146Z,12.62
2019-05-23T05:33:28.349Z,12.59
2019-05-23T05:34:28.378Z,12.59
2019-05-23T05:35:28.419Z,12.56
2019-05-23T05:36:28.439Z,12.67
2019-05-23T05:37:28.471Z,12.67
2019-05-23T05:38:29.280Z,12.71
2019-05-23T05:39:28.542Z,12.66
2019-05-23T05:40:28.610Z,12.76
2019-05-23T05:41:28.631Z,12.61
2019-05-23T05:42:28.625Z,12.71
2019-05-23T05:43:28.662Z,12.77
2019-05-23T05:44:28.733Z,12.74
2019-05-23T05:45:28.725Z,12.71
2019-05-23T05:46:28.758Z,12.76
2019-05-23T05:47:28.783Z,12.74
2019-05-23T05:48:29.128Z,12.74
2019-05-23T05:49:28.854Z,12.74
2019-05-23T05:50:28.896Z,12.81
2019-05-23T05:51:28.916Z,12.74
2019-05-23T05:52:28.947Z,12.77
2019-05-23T05:53:28.981Z,12.87
2019-05-23T05:54:29.006Z,12.76
2019-05-23T05:55:29.045Z,12.84
2019-05-23T05:56:29.074Z,12.88
2019-05-23T05:57:29.102Z,12.89
2019-05-23T05:58:29.159Z,12.91
2019-05-23T05:59:29.172Z,12.91
2019-05-23T06:00:29.207Z,12.92
2019-05-23T06:01:33.811Z,12.95
2019-05-23T06:02:29.270Z,12.95
2019-05-23T06:03:29.299Z,12.95
2019-05-23T06:04:29.324Z,12.98
2019-05-23T06:05:29.356Z,12.95
2019-05-23T06:06:29.412Z,13.09
2019-05-23T06:07:29.420Z,13.10
2019-05-23T06:08:29.460Z,13.01
2019-05-23T06:09:29.500Z,13.04
2019-05-23T06:10:29.533Z,13.07
2019-05-23T06:11:29.554Z,13.12
2019-05-23T06:12:29.586Z,13.19
2019-05-23T06:13:29.626Z,13.12
2019-05-23T06:14:29.658Z,13.12
2019-05-23T06:15:29.684Z,13.14
2019-05-23T06:16:29.712Z,13.21
2019-05-23T06:17:29.760Z,13.27
2019-05-23T06:18:29.780Z,13.35
2019-05-23T06:19:29.811Z,13.41
2019-05-23T06:20:29.844Z,13.38
2019-05-23T06:21:29.877Z,13.41
2019-05-23T06:22:29.911Z,13.47
2019-05-23T06:23:29.944Z,13.46
2019-05-23T06:24:45.414Z,13.57
2019-05-23T06:25:29.994Z,13.53
2019-05-23T06:26:30.026Z,13.68
2019-05-23T06:27:30.067Z,13.66
2019-05-23T06:28:30.095Z,13.62
2019-05-23T06:29:30.135Z,13.69
2019-05-23T06:30:32.716Z,13.71
2019-05-23T06:31:30.197Z,13.79
2019-05-23T06:32:30.227Z,13.81
2019-05-23T06:33:30.258Z,13.83
2019-05-23T06:34:30.291Z,13.73
2019-05-23T06:35:30.323Z,13.84
2019-05-23T06:36:30.377Z,13.83
2019-05-23T06:37:34.188Z,13.79
2019-05-23T06:38:30.431Z,13.90
2019-05-23T06:39:30.453Z,13.88
2019-05-23T06:40:30.486Z,13.91
2019-05-23T06:41:30.519Z,13.96
2019-05-23T06:42:30.553Z,13.94
2019-05-23T06:43:30.582Z,13.96
2019-05-23T06:44:30.618Z,14.06
2019-05-23T06:45:30.651Z,14.20
2019-05-23T06:46:30.669Z,14.20
2019-05-23T06:47:30.733Z,14.17
2019-05-23T06:48:30.747Z,14.19
2019-05-23T06:49:30.775Z,14.26
2019-05-23T06:50:30.801Z,14.24
2019-05-23T06:51:30.851Z,14.30
2019-05-23T06:52:30.876Z,14.26
2019-05-23T06:53:30.905Z,14.21
2019-05-23T06:54:30.937Z,14.26
2019-05-23T06:55:30.968Z,14.34
2019-05-23T06:56:31.002Z,14.27
2019-05-23T06:57:31.033Z,14.31
2019-05-23T06:58:31.098Z,14.34
2019-05-23T06:59:31.099Z,14.35
2019-05-23T07:00:31.132Z,14.45
2019-05-23T07:01:31.163Z,14.44
2019-05-23T07:02:32.263Z,14.48
2019-05-23T07:03:41.655Z,14.46
2019-05-23T07:04:31.260Z,14.45
2019-05-23T07:05:31.294Z,14.48
2019-05-23T07:06:31.325Z,14.54
2019-05-23T07:07:31.366Z,14.49
2019-05-23T07:08:31.430Z,14.56
2019-05-23T07:09:31.417Z,14.56
2019-05-23T07:10:31.451Z,14.59
2019-05-23T07:11:31.490Z,14.56
2019-05-23T07:12:31.615Z,14.61
2019-05-23T07:13:31.589Z,14.52
2019-05-23T07:14:31.602Z,14.63
2019-05-23T07:15:31.632Z,14.66
2019-05-23T07:16:31.658Z,14.59
2019-05-23T07:17:31.693Z,14.59
2019-05-23T07:18:31.739Z,14.75
2019-05-23T07:19:31.757Z,14.67
2019-05-23T07:20:31.790Z,14.71
2019-05-23T07:21:31.817Z,14.80
2019-05-23T07:22:31.850Z,14.78
2019-05-23T07:23:31.899Z,14.85
2019-05-23T07:24:31.915Z,14.78
2019-05-23T07:25:31.961Z,14.95
2019-05-23T07:26:31.991Z,14.94
2019-05-23T07:27:32.020Z,14.94
2019-05-23T07:28:32.052Z,14.90
2019-05-23T07:29:32.074Z,14.90
2019-05-23T07:30:32.107Z,14.91
2019-05-23T07:31:35.443Z,14.93
2019-05-23T07:32:32.173Z,15.00
2019-05-23T07:33:32.214Z,15.04
2019-05-23T07:34:32.247Z,15.00
2019-05-23T07:35:32.277Z,15.01
2019-05-23T07:36:32.309Z,15.07
2019-05-23T07:37:32.346Z,15.18
2019-05-23T07:38:32.394Z,15.18
2019-05-23T07:39:32.417Z,15.23
2019-05-23T07:40:32.448Z,15.23
2019-05-23T07:41:32.482Z,15.35
2019-05-23T07:42:32.508Z,15.30
2019-05-23T07:43:32.543Z,15.38
2019-05-23T07:44:47.537Z,15.43
2019-05-23T07:45:32.638Z,15.40
2019-05-23T07:46:32.691Z,15.52
2019-05-23T07:47:32.750Z,15.53
2019-05-23T07:48:32.707Z,15.49
2019-05-23T07:49:32.765Z,15.53
2019-05-23T07:50:32.768Z,15.59
2019-05-23T07:51:32.836Z,15.51
2019-05-23T07:52:32.836Z,15.58
2019-05-23T07:53:32.874Z,15.64
2019-05-23T07:54:32.917Z,15.77
2019-05-23T07:55:32.953Z,15.76
2019-05-23T07:56:33.000Z,15.80
2019-05-23T07:57:33.024Z,15.96
2019-05-23T07:58:33.040Z,15.99
2019-05-23T07:59:33.078Z,15.99
2019-05-23T08:00:33.112Z,15.99
2019-05-23T08:01:33.150Z,16.06
2019-05-23T08:02:33.179Z,16.08
2019-05-23T08:03:33.227Z,16.13
2019-05-23T08:04:33.266Z,16.11
2019-05-23T08:05:33.285Z,16.25
2019-05-23T08:06:33.309Z,16.22
2019-05-23T08:07:33.349Z,16.25
2019-05-23T08:08:33.373Z,16.17
2019-05-23T08:09:33.413Z,16.18
2019-05-23T08:10:34.451Z,16.22
2019-05-23T08:11:33.488Z,16.25
2019-05-23T08:12:33.512Z,16.30
2019-05-23T08:13:33.580Z,16.34
2019-05-23T08:14:33.584Z,16.33
2019-05-23T08:15:33.625Z,16.40
2019-05-23T08:16:33.672Z,16.47
2019-05-23T08:17:33.685Z,16.48
2019-05-23T08:18:33.781Z,16.51
2019-05-23T08:19:48.514Z,16.57
2019-05-23T08:20:33.788Z,16.69
2019-05-23T08:21:33.845Z,16.72
2019-05-23T08:22:33.852Z,16.80
2019-05-23T08:23:33.889Z,16.87
2019-05-23T08:24:33.934Z,16.87
2019-05-23T08:25:33.960Z,16.98
2019-05-23T08:26:33.992Z,17.06
2019-05-23T08:27:34.036Z,17.20
2019-05-23T08:28:34.067Z,17.21
2019-05-23T08:29:34.083Z,17.28
2019-05-23T08:30:34.124Z,17.38
2019-05-23T08:31:34.158Z,17.35
2019-05-23T08:32:34.199Z,17.42
2019-05-23T08:33:34.295Z,17.51
2019-05-23T08:34:41.708Z,17.54
2019-05-23T08:35:34.310Z,17.55
2019-05-23T08:36:34.366Z,17.62
2019-05-23T08:37:34.369Z,17.68
2019-05-23T08:38:34.393Z,17.71
2019-05-23T08:39:34.422Z,17.79
2019-05-23T08:40:34.466Z,17.83
2019-05-23T08:41:34.494Z,17.95
2019-05-23T08:42:34.531Z,17.92
2019-05-23T08:43:34.562Z,17.94
2019-05-23T08:44:34.599Z,17.96
2019-05-23T08:45:34.635Z,17.98
2019-05-23T08:46:34.668Z,18.04
2019-05-23T08:47:34.701Z,17.94
2019-05-23T08:48:34.736Z,17.95
2019-05-23T08:49:34.789Z,17.96
2019-05-23T08:50:34.807Z,17.91
2019-05-23T08:51:34.859Z,17.92
2019-05-23T08:52:34.875Z,17.91
2019-05-23T08:53:34.903Z,17.99
2019-05-23T08:54:34.946Z,18.05
2019-05-23T08:55:34.982Z,18.02
2019-05-23T08:56:35.012Z,18.11
2019-05-23T08:57:35.103Z,18.17
2019-05-23T08:58:35.083Z,18.25
2019-05-23T08:59:35.122Z,18.35
2019-05-23T09:00:35.145Z,18.50
2019-05-23T09:01:35.184Z,18.49
2019-05-23T09:02:35.220Z,18.49
2019-05-23T09:03:35.241Z,18.57
2019-05-23T09:04:35.292Z,18.69
2019-05-23T09:05:35.329Z,18.69
2019-05-23T09:06:35.387Z,18.71
2019-05-23T09:07:35.395Z,18.71
2019-05-23T09:08:35.431Z,18.72
2019-05-23T09:09:35.470Z,18.66
2019-05-23T09:10:35.505Z,18.79
2019-05-23T09:11:35.541Z,18.79
2019-05-23T09:12:35.569Z,18.82
2019-05-23T09:13:35.601Z,18.78
2019-05-23T09:14:35.651Z,18.94
2019-05-23T09:15:35.666Z,18.89
2019-05-23T09:16:35.706Z,19.05
2019-05-23T09:17:51.489Z,19.06
2019-05-23T09:18:35.782Z,19.13
2019-05-23T09:19:35.817Z,19.25
2019-05-23T09:20:35.846Z,19.28
2019-05-23T09:21:35.932Z,19.25
2019-05-23T09:22:35.913Z,19.35
2019-05-23T09:23:35.956Z,19.39
2019-05-23T09:24:35.996Z,19.42
2019-05-23T09:25:36.030Z,19.32
2019-05-23T09:26:36.062Z,19.43
2019-05-23T09:27:36.107Z,19.57
2019-05-23T09:28:36.150Z,19.53
2019-05-23T09:29:36.166Z,19.53
2019-05-23T09:30:36.204Z,19.60
2019-05-23T09:31:36.241Z,19.55
2019-05-23T09:32:36.275Z,19.58
2019-05-23T09:33:36.316Z,19.72
2019-05-23T09:34:36.345Z,19.83
2019-05-23T09:35:36.392Z,19.82
2019-05-23T09:36:36.411Z,19.89
2019-05-23T09:37:36.451Z,19.94
2019-05-23T09:38:36.484Z,19.90
2019-05-23T09:39:36.522Z,19.98
2019-05-23T09:40:36.557Z,20.05
2019-05-23T09:41:36.592Z,20.05
2019-05-23T09:42:36.627Z,20.13
2019-05-23T09:43:36.668Z,20.13
2019-05-23T09:44:36.700Z,20.19
2019-05-23T09:45:36.734Z,20.17
2019-05-23T09:46:36.771Z,20.30
2019-05-23T09:47:36.805Z,20.37
2019-05-23T09:48:36.849Z,20.44
2019-05-23T09:49:36.869Z,20.41
2019-05-23T09:50:36.903Z,20.46
2019-05-23T09:51:36.958Z,20.54
2019-05-23T09:52:36.984Z,20.54
2019-05-23T09:53:37.037Z,20.53
2019-05-23T09:54:37.060Z,20.63
2019-05-23T09:55:37.100Z,20.60
2019-05-23T09:56:37.127Z,20.57
2019-05-23T09:57:37.168Z,20.42
2019-05-23T09:58:37.192Z,20.44
2019-05-23T09:59:37.245Z,20.34
2019-05-23T10:00:37.271Z,20.33
2019-05-23T10:01:37.310Z,20.40
2019-05-23T10:02:37.343Z,20.37
2019-05-23T10:03:37.386Z,20.42
2019-05-23T10:04:37.438Z,20.42
2019-05-23T10:05:43.612Z,20.42
2019-05-23T10:06:37.486Z,20.56
2019-05-23T10:07:37.532Z,20.57
2019-05-23T10:08:37.583Z,20.61
2019-05-23T10:09:37.645Z,20.66
2019-05-23T10:10:37.622Z,20.61
2019-05-23T10:11:37.670Z,20.69
2019-05-23T10:12:37.716Z,20.73
2019-05-23T10:13:39.586Z,20.72
2019-05-23T10:14:37.769Z,20.81
2019-05-23T10:15:37.812Z,20.78
2019-05-23T10:16:37.849Z,20.81
2019-05-23T10:17:37.912Z,20.90
2019-05-23T10:18:37.925Z,20.97
2019-05-23T10:19:37.953Z,21.01
2019-05-23T10:20:37.998Z,21.06
2019-05-23T10:21:38.028Z,21.06
2019-05-23T10:22:38.069Z,21.16
2019-05-23T10:23:38.100Z,21.30
2019-05-23T10:24:38.136Z,21.43
2019-05-23T10:25:38.172Z,21.48
2019-05-23T10:26:38.213Z,21.58
2019-05-23T10:27:38.265Z,21.64
2019-05-23T10:28:38.307Z,21.68
2019-05-23T10:29:38.365Z,21.85
2019-05-23T10:30:38.353Z,21.86
2019-05-23T10:31:38.392Z,21.96
2019-05-23T10:32:38.461Z,22.01
2019-05-23T10:33:38.459Z,22.08
2019-05-23T10:34:38.504Z,22.23
2019-05-23T10:35:38.571Z,22.36
2019-05-23T10:36:38.598Z,22.35
2019-05-23T10:37:38.639Z,22.49
2019-05-23T10:38:38.646Z,22.57
2019-05-23T10:39:38.684Z,22.63
2019-05-23T10:40:38.722Z,22.66
2019-05-23T10:41:38.758Z,22.78
2019-05-23T10:42:38.793Z,22.85
2019-05-23T10:43:38.832Z,22.89
2019-05-23T10:44:38.873Z,22.99
2019-05-23T10:45:38.906Z,23.04
2019-05-23T10:46:38.947Z,23.01
2019-05-23T10:47:38.997Z,23.01
2019-05-23T10:48:39.021Z,23.06
2019-05-23T10:49:39.067Z,23.18
2019-05-23T10:50:44.625Z,23.19
2019-05-23T10:51:39.144Z,23.18
2019-05-23T10:52:39.160Z,23.18
2019-05-23T10:53:39.214Z,23.15
2019-05-23T10:54:39.245Z,23.16
2019-05-23T10:55:39.285Z,23.23
2019-05-23T10:56:39.316Z,23.25
2019-05-23T10:57:39.363Z,23.29
2019-05-23T10:58:39.398Z,23.29
2019-05-23T10:59:39.426Z,23.41
2019-05-23T11:00:39.541Z,23.44
2019-05-23T11:01:39.506Z,23.42
2019-05-23T11:02:39.540Z,23.49
2019-05-23T11:03:39.598Z,23.45
2019-05-23T11:04:39.623Z,23.56
2019-05-23T11:05:39.649Z,23.50
2019-05-23T11:06:39.696Z,23.64
2019-05-23T11:07:39.731Z,23.59
2019-05-23T11:08:39.771Z,23.59
2019-05-23T11:09:39.802Z,23.57
2019-05-23T11:10:39.834Z,23.63
2019-05-23T11:11:39.896Z,23.68
2019-05-23T11:12:39.913Z,23.71
2019-05-23T11:13:39.951Z,23.69
2019-05-23T11:14:39.991Z,23.78
2019-05-23T11:15:40.085Z,23.69
2019-05-23T11:16:40.068Z,23.77
2019-05-23T11:17:40.107Z,23.77
2019-05-23T11:18:40.142Z,23.87
2019-05-23T11:19:40.381Z,23.89
2019-05-23T11:20:40.214Z,23.82
2019-05-23T11:21:40.346Z,23.82
2019-05-23T11:22:40.354Z,23.90
2019-05-23T11:23:40.340Z,23.97
2019-05-23T11:24:40.431Z,23.97
2019-05-23T11:25:40.431Z,23.94
2019-05-23T11:26:40.458Z,23.93
2019-05-23T11:27:40.513Z,23.84
2019-05-23T11:28:40.564Z,23.94
2019-05-23T11:29:40.545Z,23.99
2019-05-23T11:30:40.597Z,24.04
2019-05-23T11:31:40.625Z,24.05
2019-05-23T11:32:40.771Z,24.06
2019-05-23T11:33:40.702Z,24.19
2019-05-23T11:34:40.739Z,24.27
2019-05-23T11:35:40.793Z,24.31
2019-05-23T11:36:40.819Z,24.33
2019-05-23T11:37:41.986Z,24.45
2019-05-23T11:38:40.896Z,24.53
2019-05-23T11:39:48.979Z,24.64
2019-05-23T11:40:40.976Z,24.59
2019-05-23T11:41:41.010Z,24.68
2019-05-23T11:42:41.048Z,24.75
2019-05-23T11:43:41.085Z,24.71
2019-05-23T11:44:41.122Z,24.74
2019-05-23T11:45:45.913Z,24.67
2019-05-23T11:46:41.204Z,24.59
2019-05-23T11:47:41.243Z,24.60
2019-05-23T11:48:41.275Z,24.59
2019-05-23T11:49:42.269Z,24.56
2019-05-23T11:50:41.346Z,24.51
2019-05-23T11:51:41.403Z,24.60
2019-05-23T11:52:41.436Z,24.60
2019-05-23T11:53:45.303Z,24.59
2019-05-23T11:54:41.532Z,24.56
2019-05-23T11:55:41.560Z,24.56
2019-05-23T11:56:41.586Z,24.46
2019-05-23T11:57:41.640Z,24.46
2019-05-23T11:58:41.664Z,24.51
2019-05-23T11:59:41.697Z,24.49
2019-05-23T12:00:41.745Z,24.45
2019-05-23T12:01:41.776Z,24.36
2019-05-23T12:02:41.812Z,24.49
2019-05-23T12:03:41.853Z,24.46
2019-05-23T12:04:41.888Z,24.45
2019-05-23T12:05:41.944Z,24.49
2019-05-23T12:06:54.297Z,24.46
2019-05-23T12:07:42.005Z,24.45
2019-05-23T12:08:42.050Z,24.48
2019-05-23T12:09:42.082Z,24.45
2019-05-23T12:10:42.128Z,24.46
2019-05-23T12:11:42.822Z,24.45
2019-05-23T12:12:42.190Z,24.51
2019-05-23T12:13:42.235Z,24.48
2019-05-23T12:14:42.283Z,24.44
2019-05-23T12:15:42.303Z,24.46
2019-05-23T12:16:42.379Z,24.45
2019-05-23T12:17:42.390Z,24.46
2019-05-23T12:18:42.424Z,24.44
2019-05-23T12:19:42.476Z,24.34
2019-05-23T12:20:42.501Z,24.39
2019-05-23T12:21:42.536Z,24.36
2019-05-23T12:22:42.655Z,24.41
2019-05-23T12:23:42.621Z,24.39
2019-05-23T12:24:42.662Z,24.36
2019-05-23T12:25:42.694Z,24.41
2019-05-23T12:26:42.755Z,24.41
2019-05-23T12:27:42.771Z,24.42
2019-05-23T12:28:42.813Z,24.48
2019-05-23T12:29:42.847Z,24.48
2019-05-23T12:30:42.907Z,24.42
2019-05-23T12:31:42.914Z,24.45
2019-05-23T12:32:42.977Z,24.30
2019-05-23T12:33:43.003Z,24.27
2019-05-23T12:34:43.036Z,24.21
2019-05-23T12:35:43.083Z,24.24
2019-05-23T12:36:43.115Z,24.14
2019-05-23T12:37:43.159Z,24.21
2019-05-23T12:38:43.208Z,24.16
2019-05-23T12:39:43.231Z,24.12
2019-05-23T12:40:43.282Z,24.12
2019-05-23T12:41:43.324Z,24.23
2019-05-23T12:42:43.347Z,24.18
2019-05-23T12:43:43.396Z,24.26
2019-05-23T12:44:43.429Z,24.27
2019-05-23T12:45:43.459Z,24.24
2019-05-23T12:46:43.504Z,24.34
2019-05-23T12:47:43.534Z,24.30
2019-05-23T12:48:43.569Z,24.33
2019-05-23T12:49:43.617Z,24.39
2019-05-23T12:50:43.647Z,24.51
2019-05-23T12:51:43.691Z,24.46
2019-05-23T12:52:43.720Z,24.61